createdAt,value
2022-11-29T00:00:30.020Z,5.97
2022-11-29T00:02:56.626Z,7.85
2022-11-29T00:05:23.228Z,6.53
2022-11-29T00:07:49.892Z,5.70
2022-11-29T00:10:16.567Z,6.72
2022-11-29T00:12:43.137Z,5.75
2022-11-29T00:15:09.680Z,6.30
2022-11-29T00:17:36.367Z,7.70
2022-11-29T00:20:03.343Z,8.65
2022-11-29T00:22:30.233Z,9.02
2022-11-29T00:24:56.797Z,7.38
2022-11-29T00:27:23.519Z,8.98
2022-11-29T00:29:50.122Z,7.55
2022-11-29T00:32:16.643Z,8.02
2022-11-29T00:34:43.414Z,8.82
2022-11-29T00:37:10.218Z,7.55
2022-11-29T00:39:36.787Z,8.88
2022-11-29T00:42:03.594Z,9.20
2022-11-29T00:44:33.231Z,8.57
2022-11-29T00:46:59.918Z,8.73
2022-11-29T00:49:26.445Z,8.75
2022-11-29T00:51:53.034Z,9.10
2022-11-29T00:54:19.603Z,9.15
2022-11-29T00:56:46.161Z,8.10
2022-11-29T00:59:12.756Z,8.93
2022-11-29T01:01:39.333Z,8.80
2022-11-29T01:04:05.997Z,8.48
2022-11-29T01:06:32.794Z,8.63
2022-11-29T01:08:59.324Z,7.43
2022-11-29T01:11:27.851Z,8.88
2022-11-29T01:13:57.588Z,8.30
2022-11-29T01:16:24.709Z,8.82
2022-11-29T01:18:51.449Z,9.40
2022-11-29T01:21:21.921Z,9.73
2022-11-29T01:23:50.411Z,8.68
2022-11-29T01:26:20.418Z,7.82
2022-11-29T01:28:49.656Z,8.35
2022-11-29T01:31:20.694Z,7.38
2022-11-29T01:33:47.477Z,8.82
2022-11-29T01:36:14.763Z,8.05
2022-11-29T01:38:42.531Z,9.50
2022-11-29T01:41:29.980Z,8.52
2022-11-29T01:44:01.562Z,6.95
2022-11-29T01:46:30.832Z,6.60
2022-11-29T01:49:03.541Z,6.20
2022-11-29T01:51:31.292Z,5.95
2022-11-29T01:53:58.574Z,5.43
2022-11-29T01:56:25.655Z,6.18
2022-11-29T01:58:52.408Z,5.90
2022-11-29T02:01:19.095Z,9.13
2022-11-29T02:03:45.785Z,9.07
2022-11-29T02:06:13.131Z,8.07
2022-11-29T02:08:44.236Z,7.63
2022-11-29T02:11:45.019Z,8.88
2022-11-29T02:14:33.626Z,10.73
2022-11-29T02:17:15.144Z,11.60
2022-11-29T02:20:12.258Z,9.98
2022-11-29T02:22:56.253Z,7.32
2022-11-29T02:25:44.570Z,7.72
2022-11-29T02:28:36.664Z,3.90
2022-11-29T02:31:24.918Z,5.63
2022-11-29T02:34:15.091Z,11.32
2022-11-29T02:36:47.961Z,13.30
2022-11-29T02:39:35.689Z,11.43
2022-11-29T02:42:23.557Z,10.73
2022-11-29T02:44:58.926Z,15.25
2022-11-29T02:47:28.500Z,11.23
2022-11-29T02:50:07.173Z,11.38
2022-11-29T02:52:45.540Z,11.38
2022-11-29T02:55:34.875Z,12.02
2022-11-29T02:58:25.879Z,14.10
2022-11-29T03:01:11.359Z,20.73
2022-11-29T03:03:53.138Z,18.10
2022-11-29T03:06:45.897Z,13.25
2022-11-29T03:09:21.942Z,13.88
2022-11-29T03:12:18.689Z,19.63
2022-11-29T03:15:17.605Z,29.70
2022-11-29T03:18:05.601Z,26.25
2022-11-29T03:20:50.153Z,22.52
2022-11-29T03:23:25.602Z,21.70
2022-11-29T03:25:59.645Z,21.10
2022-11-29T03:29:11.053Z,22.38
2022-11-29T03:31:58.845Z,13.55
2022-11-29T03:34:25.358Z,22.67
2022-11-29T03:37:20.918Z,21.65
2022-11-29T03:40:02.550Z,15.52
2022-11-29T03:42:56.519Z,19.17
2022-11-29T03:45:48.603Z,21.03
2022-11-29T03:48:21.921Z,22.80
2022-11-29T03:50:59.926Z,17.80
2022-11-29T03:53:36.067Z,19.08
2022-11-29T03:56:21.913Z,14.82
2022-11-29T03:58:51.357Z,15.15
2022-11-29T04:01:45.661Z,15.13
2022-11-29T04:04:30.877Z,15.95
2022-11-29T04:07:16.383Z,18.85
2022-11-29T04:09:49.059Z,13.40
2022-11-29T04:12:49.341Z,14.05
2022-11-29T04:15:27.780Z,12.32
2022-11-29T04:18:12.196Z,11.18
2022-11-29T04:21:16.137Z,10.90
2022-11-29T04:24:10.384Z,16.23
2022-11-29T04:27:07.713Z,15.25
2022-11-29T04:29:46.215Z,21.13
2022-11-29T04:32:33.885Z,19.85
2022-11-29T04:35:33.970Z,26.47
2022-11-29T04:38:00.520Z,20.38
2022-11-29T04:40:51.782Z,15.05
2022-11-29T04:43:30.234Z,25.40
2022-11-29T04:46:37.574Z,20.70
2022-11-29T04:49:10.081Z,24.13
2022-11-29T04:51:42.375Z,20.90
2022-11-29T04:54:33.090Z,22.40
2022-11-29T04:57:08.808Z,27.07
2022-11-29T05:00:09.898Z,19.43
2022-11-29T05:02:54.893Z,17.60
2022-11-29T05:05:30.791Z,17.27
2022-11-29T05:08:16.411Z,15.40
2022-11-29T05:10:55.166Z,17.00
2022-11-29T05:13:56.602Z,20.48
2022-11-29T05:16:32.466Z,13.50
2022-11-29T05:19:07.978Z,18.57
2022-11-29T05:21:53.162Z,15.37
2022-11-29T05:24:44.000Z,17.13
2022-11-29T05:27:44.411Z,18.53
2022-11-29T05:30:17.837Z,18.33
2022-11-29T05:32:44.364Z,18.00
2022-11-29T05:35:26.281Z,17.07
2022-11-29T05:37:57.274Z,118.97
2022-11-29T05:40:46.665Z,24.57
2022-11-29T05:43:48.492Z,16.60
2022-11-29T05:46:26.801Z,13.88
2022-11-29T05:48:58.309Z,14.10
2022-11-29T05:51:40.210Z,12.83
2022-11-29T05:54:29.528Z,12.17
2022-11-29T05:57:37.298Z,11.45
2022-11-29T06:00:06.086Z,10.90
2022-11-29T06:02:44.572Z,11.05
2022-11-29T06:05:28.927Z,10.47
2022-11-29T06:08:16.888Z,11.33
2022-11-29T06:11:06.709Z,12.80
2022-11-29T06:13:42.987Z,11.35
2022-11-29T06:16:31.428Z,10.57
2022-11-29T06:19:23.971Z,20.55
2022-11-29T06:22:02.577Z,20.23
2022-11-29T06:24:34.386Z,11.97
2022-11-29T06:27:06.934Z,8.57
2022-11-29T06:29:54.393Z,8.50
2022-11-29T06:32:44.067Z,8.27
2022-11-29T06:35:16.880Z,7.03
2022-11-29T06:37:50.357Z,8.27
2022-11-29T06:40:17.299Z,6.88
2022-11-29T06:42:43.987Z,7.07
2022-11-29T06:45:15.087Z,7.70
2022-11-29T06:47:52.272Z,6.88
2022-11-29T06:50:24.855Z,7.30
2022-11-29T06:53:22.313Z,7.75
2022-11-29T06:56:18.256Z,7.75
2022-11-29T06:58:57.947Z,7.72
2022-11-29T07:01:42.011Z,8.48
2022-11-29T07:04:14.795Z,8.10
2022-11-29T07:06:41.737Z,8.40
2022-11-29T07:09:16.028Z,14.10
2022-11-29T07:11:43.149Z,13.33
2022-11-29T07:14:10.398Z,8.77
2022-11-29T07:16:53.153Z,8.13
2022-11-29T07:19:56.772Z,8.40
2022-11-29T07:23:01.009Z,6.70
2022-11-29T07:25:49.076Z,6.73
2022-11-29T07:29:12.894Z,6.37
2022-11-29T07:31:45.218Z,7.27
2022-11-29T07:34:33.525Z,7.20
2022-11-29T07:37:22.102Z,7.73
2022-11-29T07:39:58.054Z,7.17
2022-11-29T07:43:29.143Z,6.93
2022-11-29T07:45:57.500Z,7.90
2022-11-29T07:48:24.315Z,7.87
2022-11-29T07:50:50.968Z,7.50
2022-11-29T07:53:19.589Z,10.30
2022-11-29T07:55:46.709Z,9.70
2022-11-29T07:58:15.112Z,8.33
2022-11-29T08:00:42.742Z,22.27
2022-11-29T08:03:10.056Z,17.27
2022-11-29T08:05:38.515Z,12.10
2022-11-29T08:08:05.649Z,8.67
2022-11-29T08:10:32.600Z,7.77
2022-11-29T08:12:59.296Z,7.00
2022-11-29T08:15:26.148Z,9.67
2022-11-29T08:17:53.294Z,28.92
2022-11-29T08:20:19.941Z,19.85
2022-11-29T08:22:57.332Z,20.77
2022-11-29T08:25:24.607Z,22.20
2022-11-29T08:27:51.812Z,39.33
2022-11-29T08:30:22.226Z,16.63
2022-11-29T08:32:52.734Z,10.83
2022-11-29T08:35:21.934Z,12.35
2022-11-29T08:37:49.071Z,14.85
2022-11-29T08:40:16.603Z,9.10
2022-11-29T08:42:43.256Z,9.53
2022-11-29T08:45:11.157Z,7.53
2022-11-29T08:47:38.965Z,6.53
2022-11-29T08:50:14.279Z,6.18
2022-11-29T08:53:02.398Z,5.40
2022-11-29T08:55:36.284Z,6.40
2022-11-29T08:58:08.806Z,5.87
2022-11-29T09:00:36.506Z,6.13
2022-11-29T09:03:24.292Z,5.70
2022-11-29T09:05:51.972Z,5.63
2022-11-29T09:08:19.028Z,5.53
2022-11-29T09:10:46.025Z,5.70
2022-11-29T09:13:12.859Z,6.00
2022-11-29T09:15:41.919Z,5.30
2022-11-29T09:18:08.618Z,5.50
2022-11-29T09:20:35.462Z,13.83
2022-11-29T09:23:02.356Z,15.63
2022-11-29T09:25:29.297Z,7.10
2022-11-29T09:27:58.921Z,6.97
2022-11-29T09:30:26.440Z,5.90
2022-11-29T09:32:53.125Z,5.37
2022-11-29T09:35:19.729Z,4.60
2022-11-29T09:37:46.315Z,4.55
2022-11-29T09:40:19.660Z,4.80
2022-11-29T09:42:52.273Z,4.78
2022-11-29T09:45:36.588Z,4.88
2022-11-29T09:48:24.566Z,4.90
2022-11-29T09:51:15.719Z,4.95
2022-11-29T09:54:15.978Z,4.90
2022-11-29T09:56:46.497Z,4.87
2022-11-29T09:59:25.535Z,4.93
2022-11-29T10:02:06.226Z,4.78
2022-11-29T10:04:44.416Z,4.85
2022-11-29T10:07:21.831Z,4.22
2022-11-29T10:10:16.165Z,4.40
2022-11-29T10:12:42.733Z,4.50
2022-11-29T10:15:28.561Z,4.35
2022-11-29T10:18:22.200Z,4.20
2022-11-29T10:20:51.897Z,4.25
2022-11-29T10:23:29.584Z,4.75
2022-11-29T10:25:57.861Z,3.60
2022-11-29T10:28:31.304Z,4.60
2022-11-29T10:31:14.172Z,4.50
2022-11-29T10:33:42.073Z,3.67
2022-11-29T10:36:47.549Z,3.47
2022-11-29T10:39:37.160Z,2.85
2022-11-29T10:42:25.820Z,3.00
2022-11-29T10:44:52.554Z,2.85
2022-11-29T10:47:19.176Z,2.47
2022-11-29T10:49:45.839Z,3.35
2022-11-29T10:52:20.071Z,2.38
2022-11-29T10:54:47.705Z,2.38
2022-11-29T10:57:17.734Z,2.92
2022-11-29T11:00:09.860Z,2.63
2022-11-29T11:02:36.995Z,2.97
2022-11-29T11:05:13.327Z,3.08
2022-11-29T11:07:40.087Z,2.70
2022-11-29T11:10:26.491Z,2.63
2022-11-29T11:13:08.225Z,3.22
2022-11-29T11:15:35.126Z,3.45
2022-11-29T11:18:07.038Z,2.50
2022-11-29T11:20:37.911Z,2.97
2022-11-29T11:23:08.039Z,3.45
2022-11-29T11:25:40.066Z,3.25
2022-11-29T11:28:22.323Z,3.45
2022-11-29T11:31:04.559Z,3.53
2022-11-29T11:33:34.914Z,3.58
2022-11-29T11:36:26.432Z,3.67
2022-11-29T11:38:58.355Z,3.65
2022-11-29T11:41:53.830Z,4.05
2022-11-29T11:44:46.552Z,3.85
2022-11-29T11:47:17.862Z,4.20
2022-11-29T11:49:49.639Z,4.28
2022-11-29T11:52:21.639Z,3.92
2022-11-29T11:54:58.028Z,3.50
2022-11-29T11:57:25.759Z,3.50
2022-11-29T11:59:54.914Z,3.25
2022-11-29T12:02:27.446Z,3.20
2022-11-29T12:04:58.924Z,3.40
2022-11-29T12:08:06.877Z,3.38
2022-11-29T12:10:32.423Z,2.85
2022-11-29T12:13:00.438Z,3.30
2022-11-29T12:15:38.307Z,3.22
2022-11-29T12:18:22.766Z,3.38
2022-11-29T12:21:27.572Z,3.30
2022-11-29T12:24:03.335Z,3.45
2022-11-29T12:26:58.391Z,3.92
2022-11-29T12:29:30.314Z,3.90
2022-11-29T12:32:08.850Z,3.95
2022-11-29T12:34:50.456Z,4.20
2022-11-29T12:37:57.485Z,3.45
2022-11-29T12:40:49.316Z,3.65
2022-11-29T12:43:35.544Z,3.78
2022-11-29T12:46:13.893Z,3.75
2022-11-29T12:48:55.417Z,3.40
2022-11-29T12:51:54.989Z,3.45
2022-11-29T12:54:36.727Z,3.30
2022-11-29T12:57:35.357Z,3.45
2022-11-29T13:00:08.171Z,3.45
2022-11-29T13:02:47.147Z,3.13
2022-11-29T13:05:36.573Z,3.13
2022-11-29T13:08:21.738Z,3.72
2022-11-29T13:11:00.311Z,3.90
2022-11-29T13:13:42.998Z,3.95
2022-11-29T13:16:31.331Z,3.70
2022-11-29T13:19:07.162Z,4.18
2022-11-29T13:21:42.943Z,4.80
2022-11-29T13:24:25.773Z,4.10
2022-11-29T13:26:53.387Z,3.78
2022-11-29T13:29:20.783Z,4.00
2022-11-29T13:31:48.976Z,4.30
2022-11-29T13:34:23.101Z,4.45
2022-11-29T13:37:07.104Z,4.25
2022-11-29T13:39:55.334Z,4.03
2022-11-29T13:42:39.006Z,4.60
2022-11-29T13:45:37.716Z,4.35
2022-11-29T13:48:46.619Z,3.90
2022-11-29T13:51:35.721Z,3.47
2022-11-29T13:54:26.953Z,3.78
2022-11-29T13:57:06.343Z,4.50
2022-11-29T13:59:37.000Z,3.70
2022-11-29T14:02:24.794Z,4.05
2022-11-29T14:04:52.087Z,3.60
2022-11-29T14:07:19.893Z,4.30
2022-11-29T14:10:07.000Z,4.13
2022-11-29T14:12:53.502Z,4.15
2022-11-29T14:15:27.705Z,4.15
2022-11-29T14:18:01.178Z,4.00
2022-11-29T14:20:30.723Z,3.72
2022-11-29T14:23:06.463Z,4.60
2022-11-29T14:28:20.776Z,3.65
2022-11-29T14:30:52.981Z,4.28
2022-11-29T14:33:26.856Z,4.60
2022-11-29T14:36:38.186Z,4.05
2022-11-29T14:39:19.001Z,4.40
2022-11-29T14:41:51.176Z,4.13
2022-11-29T14:44:24.826Z,4.07
2022-11-29T14:47:15.811Z,3.60
2022-11-29T14:49:44.631Z,4.10
2022-11-29T14:52:13.989Z,4.32
2022-11-29T14:54:54.538Z,4.35
2022-11-29T14:57:52.753Z,3.80
2022-11-29T15:00:22.310Z,4.00
2022-11-29T15:02:55.142Z,4.25
2022-11-29T15:05:30.923Z,4.18
2022-11-29T15:08:35.120Z,4.18
2022-11-29T15:11:13.716Z,4.20
2022-11-29T15:13:54.740Z,4.38
2022-11-29T15:16:34.799Z,4.65
2022-11-29T15:19:26.333Z,4.00
2022-11-29T15:22:08.463Z,4.10
2022-11-29T15:24:55.202Z,3.75
2022-11-29T15:27:23.021Z,3.78
2022-11-29T15:29:49.845Z,3.95
2022-11-29T15:32:29.555Z,3.10
2022-11-29T15:34:57.078Z,3.83
2022-11-29T15:37:39.955Z,3.17
2022-11-29T15:40:15.100Z,3.55
2022-11-29T15:43:19.144Z,4.03
2022-11-29T15:45:50.740Z,3.80
2022-11-29T15:48:23.850Z,3.70
2022-11-29T15:50:53.794Z,3.75
2022-11-29T15:53:26.760Z,3.72
2022-11-29T15:55:56.721Z,3.88
2022-11-29T15:58:27.345Z,3.30
2022-11-29T16:00:55.087Z,3.40
2022-11-29T16:03:26.667Z,5.30
2022-11-29T16:06:03.639Z,3.80
2022-11-29T16:08:35.298Z,3.65
2022-11-29T16:11:02.179Z,3.85
2022-11-29T16:13:32.146Z,3.80
2022-11-29T16:16:19.630Z,7.45
2022-11-29T16:18:48.021Z,6.03
2022-11-29T16:21:25.481Z,4.55
2022-11-29T16:23:53.200Z,7.25
2022-11-29T16:26:32.808Z,11.05
2022-11-29T16:29:00.425Z,7.30
2022-11-29T16:31:36.409Z,5.47
2022-11-29T16:34:09.155Z,5.07
2022-11-29T16:36:36.224Z,5.10
2022-11-29T16:39:07.927Z,5.07
2022-11-29T16:41:37.829Z,9.35
2022-11-29T16:44:06.934Z,5.57
2022-11-29T16:46:40.018Z,5.22
2022-11-29T16:49:35.895Z,5.22
2022-11-29T16:52:04.115Z,4.30
2022-11-29T16:54:35.502Z,4.05
2022-11-29T16:57:05.998Z,4.10
2022-11-29T16:59:32.616Z,4.18
2022-11-29T17:01:59.441Z,4.38
2022-11-29T17:04:26.493Z,6.93
2022-11-29T17:06:55.021Z,5.30
2022-11-29T17:09:25.194Z,5.50
2022-11-29T17:11:52.183Z,4.97
2022-11-29T17:14:18.797Z,4.55
2022-11-29T17:16:49.227Z,5.18
2022-11-29T17:19:16.505Z,7.05
2022-11-29T17:21:43.609Z,6.07
2022-11-29T17:24:13.711Z,6.70
2022-11-29T17:26:41.689Z,5.88
2022-11-29T17:29:10.908Z,11.82
2022-11-29T17:31:37.804Z,8.50
2022-11-29T17:34:04.928Z,8.32
2022-11-29T17:36:31.712Z,8.30
2022-11-29T17:39:02.365Z,8.52
2022-11-29T17:41:30.431Z,7.95
2022-11-29T17:43:57.883Z,8.35
2022-11-29T17:46:36.080Z,7.45
2022-11-29T17:49:06.803Z,9.25
2022-11-29T17:51:52.301Z,8.68
2022-11-29T17:54:19.688Z,8.40
2022-11-29T17:56:46.486Z,9.50
2022-11-29T17:59:13.070Z,9.13
2022-11-29T18:01:39.831Z,9.40
2022-11-29T18:04:08.369Z,11.75
2022-11-29T18:06:37.824Z,10.90
2022-11-29T18:09:06.042Z,10.50
2022-11-29T18:11:47.468Z,9.65
2022-11-29T18:14:17.604Z,9.75
2022-11-29T18:16:45.648Z,10.15
2022-11-29T18:19:15.367Z,9.90
2022-11-29T18:21:42.737Z,10.73
2022-11-29T18:24:09.841Z,10.18
2022-11-29T18:26:37.721Z,8.98
2022-11-29T18:29:05.792Z,9.90
2022-11-29T18:31:35.207Z,8.82
2022-11-29T18:34:07.248Z,10.30
2022-11-29T18:36:37.113Z,10.77
2022-11-29T18:39:07.313Z,10.25
2022-11-29T18:41:33.845Z,9.82
2022-11-29T18:44:03.314Z,10.90
2022-11-29T18:46:32.900Z,12.18
2022-11-29T18:49:02.255Z,11.68
2022-11-29T18:51:30.200Z,10.75
2022-11-29T18:53:58.046Z,11.48
2022-11-29T18:56:26.826Z,9.85
2022-11-29T18:58:58.639Z,11.47
2022-11-29T19:01:28.922Z,9.65
2022-11-29T19:03:58.404Z,10.10
2022-11-29T19:06:38.604Z,11.43
2022-11-29T19:09:07.940Z,13.10
2022-11-29T19:11:35.576Z,12.10
2022-11-29T19:14:05.034Z,11.50
2022-11-29T19:16:33.769Z,12.63
2022-11-29T19:19:01.689Z,15.33
2022-11-29T19:21:31.817Z,15.70
2022-11-29T19:24:01.147Z,14.63
2022-11-29T19:26:30.088Z,13.57
2022-11-29T19:28:57.257Z,14.02
2022-11-29T19:31:27.057Z,15.57
2022-11-29T19:33:54.900Z,13.90
2022-11-29T19:36:23.890Z,16.17
2022-11-29T19:38:53.767Z,16.80
2022-11-29T19:41:29.405Z,18.67
2022-11-29T19:43:58.046Z,16.63
2022-11-29T19:46:27.787Z,14.77
2022-11-29T19:48:56.316Z,13.60
2022-11-29T19:51:24.354Z,14.70
2022-11-29T19:53:55.854Z,14.20
2022-11-29T19:56:23.527Z,16.27
2022-11-29T19:58:50.592Z,18.27
2022-11-29T20:01:23.079Z,19.90
2022-11-29T20:03:50.607Z,18.23
2022-11-29T20:06:18.647Z,21.43
2022-11-29T20:08:45.863Z,19.57
2022-11-29T20:11:23.476Z,17.30
2022-11-29T20:13:56.347Z,20.97
2022-11-29T20:16:23.574Z,20.57
2022-11-29T20:18:51.644Z,20.07
2022-11-29T20:21:30.005Z,19.33
2022-11-29T20:23:58.748Z,19.40
2022-11-29T20:26:26.799Z,24.27
2022-11-29T20:28:53.482Z,20.70
2022-11-29T20:31:22.975Z,21.97
2022-11-29T20:33:51.860Z,20.50
2022-11-29T20:36:40.208Z,20.93
2022-11-29T20:39:12.839Z,19.60
2022-11-29T20:42:16.800Z,23.93
2022-11-29T20:44:55.174Z,24.77
2022-11-29T20:47:24.428Z,23.80
2022-11-29T20:49:51.482Z,23.63
2022-11-29T20:52:40.678Z,20.23
2022-11-29T20:55:07.636Z,21.53
2022-11-29T20:57:34.338Z,22.70
2022-11-29T21:00:00.952Z,24.30
2022-11-29T21:02:27.740Z,22.70
2022-11-29T21:04:54.369Z,24.90
2022-11-29T21:07:21.187Z,24.30
2022-11-29T21:09:47.824Z,21.87
2022-11-29T21:12:15.050Z,22.90
2022-11-29T21:14:42.994Z,22.00
2022-11-29T21:17:10.680Z,20.33
2022-11-29T21:19:37.717Z,24.73
2022-11-29T21:22:48.340Z,24.97
2022-11-29T21:25:36.792Z,24.17
2022-11-29T21:28:08.821Z,25.90
2022-11-29T21:30:35.775Z,24.27
2022-11-29T21:33:02.668Z,28.80
2022-11-29T21:35:29.261Z,28.00
2022-11-29T21:37:58.882Z,26.73
2022-11-29T21:40:25.699Z,27.67
2022-11-29T21:42:52.284Z,28.63
2022-11-29T21:45:18.927Z,28.67
2022-11-29T21:47:46.758Z,24.07
2022-11-29T21:50:13.841Z,26.20
2022-11-29T21:52:40.597Z,26.87
2022-11-29T21:55:07.559Z,26.97
2022-11-29T21:57:34.150Z,24.10
2022-11-29T22:00:00.806Z,27.57
2022-11-29T22:02:27.463Z,25.23
2022-11-29T22:04:54.090Z,21.37
2022-11-29T22:07:20.709Z,22.17
2022-11-29T22:09:47.392Z,23.57
2022-11-29T22:12:33.248Z,25.53
2022-11-29T22:15:00.753Z,25.80
2022-11-29T22:17:27.410Z,23.87
2022-11-29T22:19:54.011Z,26.50
2022-11-29T22:22:20.686Z,23.03
2022-11-29T22:24:47.580Z,32.33
2022-11-29T22:27:14.505Z,21.23
2022-11-29T22:29:41.055Z,21.87
2022-11-29T22:32:07.652Z,23.47
2022-11-29T22:34:34.217Z,23.37
2022-11-29T22:37:00.858Z,27.03
2022-11-29T22:39:27.481Z,31.07
2022-11-29T22:41:55.244Z,34.17
2022-11-29T22:44:23.422Z,37.07
2022-11-29T22:46:50.711Z,43.33
2022-11-29T22:49:17.408Z,29.57
2022-11-29T22:51:43.994Z,29.30
2022-11-29T22:54:11.846Z,33.53
2022-11-29T22:56:41.166Z,27.83
2022-11-29T22:59:08.528Z,31.87
2022-11-29T23:01:37.486Z,27.77
2022-11-29T23:04:07.333Z,31.67
2022-11-29T23:06:40.215Z,31.00
2022-11-29T23:09:15.966Z,29.57
2022-11-29T23:11:44.525Z,27.83
2022-11-29T23:14:11.497Z,30.70
2022-11-29T23:16:38.465Z,25.53
2022-11-29T23:19:05.050Z,27.97
2022-11-29T23:21:35.054Z,29.03
2022-11-29T23:24:02.447Z,28.87
2022-11-29T23:26:34.053Z,29.60
2022-11-29T23:29:00.706Z,25.80
2022-11-29T23:31:27.380Z,27.13
2022-11-29T23:33:54.190Z,27.77
2022-11-29T23:36:21.073Z,23.97
2022-11-29T23:38:47.904Z,28.27
2022-11-29T23:41:14.962Z,25.37
2022-11-29T23:43:42.220Z,28.23
2022-11-29T23:46:23.644Z,26.20
2022-11-29T23:48:50.784Z,25.77
2022-11-29T23:51:18.620Z,29.40
2022-11-29T23:53:46.726Z,25.93
2022-11-29T23:56:17.584Z,28.53
2022-11-29T23:58:45.120Z,29.57
